sensor_id;sensor_type;location;lat;lon;timestamp;pressure;altitude;pressure_sealevel;temperature;humidity
13732;BME280;6937;56.096;12.664;2023-05-27T00:01:44;102385.97;;;11.25;100.00
13732;BME280;6937;56.096;12.664;2023-05-27T00:04:09;102383.56;;;11.21;100.00
13732;BME280;6937;56.096;12.664;2023-05-27T00:06:34;102377.34;;;11.20;100.00
13732;BME280;6937;56.096;12.664;2023-05-27T00:09:01;102379.03;;;11.21;100.00
13732;BME280;6937;56.096;12.664;2023-05-27T00:11:26;102376.38;;;11.21;100.00
13732;BME280;6937;56.096;12.664;2023-05-27T00:13:52;102373.56;;;11.24;100.00
13732;BME280;6937;56.096;12.664;2023-05-27T00:16:17;102375.22;;;11.27;100.00
13732;BME280;6937;56.096;12.664;2023-05-27T00:18:42;102381.66;;;11.23;100.00
13732;BME280;6937;56.096;12.664;2023-05-27T00:21:08;102390.13;;;11.13;100.00
13732;BME280;6937;56.096;12.664;2023-05-27T00:23:33;102388.56;;;11.09;100.00
13732;BME280;6937;56.096;12.664;2023-05-27T00:25:59;102393.09;;;11.07;100.00
13732;BME280;6937;56.096;12.664;2023-05-27T00:28:24;102395.06;;;11.04;100.00
13732;BME280;6937;56.096;12.664;2023-05-27T00:30:54;102396.00;;;11.03;100.00
13732;BME280;6937;56.096;12.664;2023-05-27T00:33:19;102393.63;;;10.97;100.00
13732;BME280;6937;56.096;12.664;2023-05-27T00:35:46;102391.09;;;10.94;100.00
13732;BME280;6937;56.096;12.664;2023-05-27T00:38:11;102397.53;;;10.90;100.00
13732;BME280;6937;56.096;12.664;2023-05-27T00:40:39;102395.03;;;10.87;100.00
13732;BME280;6937;56.096;12.664;2023-05-27T00:43:05;102400.13;;;10.91;100.00
13732;BME280;6937;56.096;12.664;2023-05-27T00:45:30;102401.88;;;10.92;100.00
13732;BME280;6937;56.096;12.664;2023-05-27T00:47:56;102397.44;;;10.91;100.00
13732;BME280;6937;56.096;12.664;2023-05-27T00:50:22;102401.09;;;10.90;100.00
13732;BME280;6937;56.096;12.664;2023-05-27T00:52:50;102392.34;;;10.87;100.00
13732;BME280;6937;56.096;12.664;2023-05-27T00:55:16;102395.75;;;10.90;100.00
13732;BME280;6937;56.096;12.664;2023-05-27T00:57:42;102398.06;;;10.98;100.00
13732;BME280;6937;56.096;12.664;2023-05-27T01:00:09;102387.25;;;10.99;100.00
13732;BME280;6937;56.096;12.664;2023-05-27T01:02:35;102380.03;;;11.01;100.00
13732;BME280;6937;56.096;12.664;2023-05-27T01:05:01;102380.03;;;11.01;100.00
13732;BME280;6937;56.096;12.664;2023-05-27T01:10:31;102380.81;;;11.03;100.00
13732;BME280;6937;56.096;12.664;2023-05-27T01:13:06;102378.09;;;11.05;100.00
13732;BME280;6937;56.096;12.664;2023-05-27T01:15:34;102383.22;;;11.09;100.00
13732;BME280;6937;56.096;12.664;2023-05-27T01:18:02;102372.50;;;11.09;100.00
13732;BME280;6937;56.096;12.664;2023-05-27T01:20:32;102379.50;;;11.12;100.00
13732;BME280;6937;56.096;12.664;2023-05-27T01:22:58;102377.06;;;11.07;100.00
13732;BME280;6937;56.096;12.664;2023-05-27T01:25:24;102380.09;;;11.00;100.00
13732;BME280;6937;56.096;12.664;2023-05-27T01:27:50;102383.00;;;10.95;100.00
13732;BME280;6937;56.096;12.664;2023-05-27T01:30:16;102379.97;;;10.84;100.00
13732;BME280;6937;56.096;12.664;2023-05-27T01:32:55;102380.56;;;10.72;100.00
13732;BME280;6937;56.096;12.664;2023-05-27T01:35:38;102379.53;;;10.75;100.00
13732;BME280;6937;56.096;12.664;2023-05-27T01:38:14;102378.81;;;10.71;100.00
13732;BME280;6937;56.096;12.664;2023-05-27T01:40:40;102375.50;;;10.66;100.00
13732;BME280;6937;56.096;12.664;2023-05-27T01:43:07;102376.19;;;10.51;100.00
13732;BME280;6937;56.096;12.664;2023-05-27T01:45:34;102380.09;;;10.44;100.00
13732;BME280;6937;56.096;12.664;2023-05-27T01:48:00;102384.00;;;10.37;100.00
13732;BME280;6937;56.096;12.664;2023-05-27T01:50:25;102379.53;;;10.37;100.00
13732;BME280;6937;56.096;12.664;2023-05-27T01:52:51;102384.16;;;10.34;100.00
13732;BME280;6937;56.096;12.664;2023-05-27T01:55:16;102375.59;;;10.26;100.00
13732;BME280;6937;56.096;12.664;2023-05-27T01:57:42;102379.50;;;10.18;100.00
13732;BME280;6937;56.096;12.664;2023-05-27T02:00:08;102371.63;;;10.15;100.00
13732;BME280;6937;56.096;12.664;2023-05-27T02:02:34;102385.00;;;10.14;100.00
13732;BME280;6937;56.096;12.664;2023-05-27T02:04:59;102380.56;;;10.14;100.00
13732;BME280;6937;56.096;12.664;2023-05-27T02:07:25;102371.53;;;10.17;100.00
13732;BME280;6937;56.096;12.664;2023-05-27T02:09:52;102370.78;;;10.34;100.00
13732;BME280;6937;56.096;12.664;2023-05-27T02:12:17;102367.81;;;10.40;100.00
13732;BME280;6937;56.096;12.664;2023-05-27T02:14:42;102365.72;;;10.46;100.00
13732;BME280;6937;56.096;12.664;2023-05-27T02:17:10;102362.78;;;10.52;100.00
13732;BME280;6937;56.096;12.664;2023-05-27T02:19:35;102358.94;;;10.58;100.00
13732;BME280;6937;56.096;12.664;2023-05-27T02:22:01;102368.63;;;10.60;100.00
13732;BME280;6937;56.096;12.664;2023-05-27T02:24:26;102354.41;;;10.60;100.00
13732;BME280;6937;56.096;12.664;2023-05-27T02:26:52;102369.72;;;10.56;100.00
13732;BME280;6937;56.096;12.664;2023-05-27T02:29:17;102362.25;;;10.26;100.00
13732;BME280;6937;56.096;12.664;2023-05-27T02:31:42;102371.53;;;10.17;100.00
13732;BME280;6937;56.096;12.664;2023-05-27T02:34:08;102363.81;;;10.09;100.00
13732;BME280;6937;56.096;12.664;2023-05-27T02:36:33;102370.19;;;10.07;100.00
13732;BME280;6937;56.096;12.664;2023-05-27T02:39:00;102378.06;;;9.90;100.00
13732;BME280;6937;56.096;12.664;2023-05-27T02:41:25;102374.66;;;9.86;100.00
13732;BME280;6937;56.096;12.664;2023-05-27T02:43:51;102385.88;;;9.94;100.00
13732;BME280;6937;56.096;12.664;2023-05-27T02:46:17;102363.28;;;10.01;100.00
13732;BME280;6937;56.096;12.664;2023-05-27T02:48:42;102360.41;;;10.06;100.00
13732;BME280;6937;56.096;12.664;2023-05-27T02:51:08;102354.97;;;9.89;100.00
13732;BME280;6937;56.096;12.664;2023-05-27T02:53:33;102350.75;;;9.83;100.00
13732;BME280;6937;56.096;12.664;2023-05-27T02:55:58;102356.03;;;9.85;100.00
13732;BME280;6937;56.096;12.664;2023-05-27T02:58:24;102355.03;;;9.87;100.00
13732;BME280;6937;56.096;12.664;2023-05-27T03:00:49;102344.50;;;9.84;100.00
13732;BME280;6937;56.096;12.664;2023-05-27T03:03:14;102341.13;;;9.79;100.00
13732;BME280;6937;56.096;12.664;2023-05-27T03:05:40;102356.38;;;9.77;100.00
13732;BME280;6937;56.096;12.664;2023-05-27T03:08:05;102355.22;;;9.83;100.00
13732;BME280;6937;56.096;12.664;2023-05-27T03:10:32;102362.91;;;9.90;100.00
13732;BME280;6937;56.096;12.664;2023-05-27T03:12:57;102352.94;;;9.94;100.00
13732;BME280;6937;56.096;12.664;2023-05-27T03:15:23;102350.03;;;10.00;100.00
13732;BME280;6937;56.096;12.664;2023-05-27T03:17:48;102342.88;;;10.00;100.00
13732;BME280;6937;56.096;12.664;2023-05-27T03:20:13;102347.16;;;10.04;100.00
13732;BME280;6937;56.096;12.664;2023-05-27T03:22:39;102347.25;;;10.01;100.00
13732;BME280;6937;56.096;12.664;2023-05-27T03:25:05;102342.34;;;9.92;100.00
13732;BME280;6937;56.096;12.664;2023-05-27T03:27:31;102339.59;;;9.94;100.00
13732;BME280;6937;56.096;12.664;2023-05-27T03:29:57;102340.22;;;10.00;100.00
13732;BME280;6937;56.096;12.664;2023-05-27T03:32:22;102348.09;;;10.03;100.00
13732;BME280;6937;56.096;12.664;2023-05-27T03:34:47;102339.78;;;10.09;100.00
13732;BME280;6937;56.096;12.664;2023-05-27T03:37:13;102343.94;;;10.16;100.00
13732;BME280;6937;56.096;12.664;2023-05-27T03:39:39;102338.69;;;10.15;100.00
13732;BME280;6937;56.096;12.664;2023-05-27T03:42:05;102334.06;;;10.18;100.00
13732;BME280;6937;56.096;12.664;2023-05-27T03:44:31;102331.91;;;10.27;100.00
13732;BME280;6937;56.096;12.664;2023-05-27T03:46:57;102323.25;;;10.40;100.00
13732;BME280;6937;56.096;12.664;2023-05-27T03:49:22;102341.44;;;10.51;100.00
13732;BME280;6937;56.096;12.664;2023-05-27T03:51:48;102335.94;;;10.54;100.00
13732;BME280;6937;56.096;12.664;2023-05-27T03:54:13;102326.22;;;10.53;100.00
13732;BME280;6937;56.096;12.664;2023-05-27T03:56:39;102336.56;;;10.60;100.00
13732;BME280;6937;56.096;12.664;2023-05-27T03:59:05;102342.88;;;10.58;100.00
13732;BME280;6937;56.096;12.664;2023-05-27T04:01:31;102341.03;;;10.60;100.00
13732;BME280;6937;56.096;12.664;2023-05-27T04:03:57;102345.22;;;10.65;100.00
13732;BME280;6937;56.096;12.664;2023-05-27T04:06:22;102339.59;;;10.72;100.00
13732;BME280;6937;56.096;12.664;2023-05-27T04:08:48;102334.00;;;10.76;100.00
13732;BME280;6937;56.096;12.664;2023-05-27T04:11:13;102325.53;;;10.85;100.00
13732;BME280;6937;56.096;12.664;2023-05-27T04:13:39;102317.13;;;10.93;100.00
13732;BME280;6937;56.096;12.664;2023-05-27T04:16:05;102312.44;;;10.98;100.00
13732;BME280;6937;56.096;12.664;2023-05-27T04:18:30;102315.03;;;10.99;100.00
13732;BME280;6937;56.096;12.664;2023-05-27T04:20:55;102314.81;;;11.04;100.00
13732;BME280;6937;56.096;12.664;2023-05-27T04:23:23;102312.63;;;11.12;100.00
13732;BME280;6937;56.096;12.664;2023-05-27T04:25:48;102313.25;;;11.17;100.00
13732;BME280;6937;56.096;12.664;2023-05-27T04:28:14;102307.59;;;11.23;100.00
13732;BME280;6937;56.096;12.664;2023-05-27T04:30:41;102302.88;;;11.28;100.00
13732;BME280;6937;56.096;12.664;2023-05-27T04:33:06;102304.31;;;11.35;100.00
13732;BME280;6937;56.096;12.664;2023-05-27T04:35:33;102296.00;;;11.40;100.00
13732;BME280;6937;56.096;12.664;2023-05-27T04:37:59;102289.41;;;11.47;100.00
13732;BME280;6937;56.096;12.664;2023-05-27T04:40:26;102282.84;;;11.52;100.00
13732;BME280;6937;56.096;12.664;2023-05-27T04:42:52;102266.47;;;11.58;100.00
13732;BME280;6937;56.096;12.664;2023-05-27T04:45:17;102269.72;;;11.65;100.00
13732;BME280;6937;56.096;12.664;2023-05-27T04:47:43;102259.00;;;11.65;100.00
13732;BME280;6937;56.096;12.664;2023-05-27T04:50:10;102246.59;;;11.62;100.00
13732;BME280;6937;56.096;12.664;2023-05-27T04:52:36;102253.63;;;11.65;100.00
13732;BME280;6937;56.096;12.664;2023-05-27T04:55:07;102233.53;;;11.74;100.00
13732;BME280;6937;56.096;12.664;2023-05-27T04:57:34;102227.19;;;11.76;100.00
13732;BME280;6937;56.096;12.664;2023-05-27T05:00:00;102229.63;;;11.81;100.00
13732;BME280;6937;56.096;12.664;2023-05-27T05:02:29;102220.59;;;11.82;100.00
13732;BME280;6937;56.096;12.664;2023-05-27T05:05:09;102215.00;;;11.86;100.00
13732;BME280;6937;56.096;12.664;2023-05-27T05:07:35;102211.69;;;11.81;100.00
13732;BME280;6937;56.096;12.664;2023-05-27T05:10:08;102223.72;;;11.90;100.00
13732;BME280;6937;56.096;12.664;2023-05-27T05:12:34;102225.22;;;11.95;100.00
13732;BME280;6937;56.096;12.664;2023-05-27T05:15:00;102213.41;;;11.99;100.00
13732;BME280;6937;56.096;12.664;2023-05-27T05:17:25;102222.28;;;12.00;100.00
13732;BME280;6937;56.096;12.664;2023-05-27T05:19:52;102221.00;;;12.07;100.00
13732;BME280;6937;56.096;12.664;2023-05-27T05:22:17;102206.03;;;12.19;100.00
13732;BME280;6937;56.096;12.664;2023-05-27T05:24:47;102206.91;;;12.19;100.00
13732;BME280;6937;56.096;12.664;2023-05-27T05:27:13;102203.22;;;12.22;100.00
13732;BME280;6937;56.096;12.664;2023-05-27T05:29:38;102215.50;;;12.26;100.00
13732;BME280;6937;56.096;12.664;2023-05-27T05:32:04;102214.53;;;12.27;100.00
13732;BME280;6937;56.096;12.664;2023-05-27T05:34:30;102215.56;;;12.24;100.00
13732;BME280;6937;56.096;12.664;2023-05-27T05:36:55;102222.22;;;12.17;100.00
13732;BME280;6937;56.096;12.664;2023-05-27T05:39:21;102227.16;;;12.25;100.00
13732;BME280;6937;56.096;12.664;2023-05-27T05:41:46;102214.34;;;12.30;100.00
13732;BME280;6937;56.096;12.664;2023-05-27T05:44:12;102205.19;;;12.34;100.00
13732;BME280;6937;56.096;12.664;2023-05-27T05:46:38;102201.56;;;12.35;100.00
13732;BME280;6937;56.096;12.664;2023-05-27T05:49:04;102197.81;;;12.37;100.00
13732;BME280;6937;56.096;12.664;2023-05-27T05:51:29;102202.94;;;12.42;100.00
13732;BME280;6937;56.096;12.664;2023-05-27T05:53:56;102202.94;;;12.42;100.00
13732;BME280;6937;56.096;12.664;2023-05-27T05:56:22;102206.28;;;12.45;100.00
13732;BME280;6937;56.096;12.664;2023-05-27T05:58:47;102204.66;;;12.43;100.00
13732;BME280;6937;56.096;12.664;2023-05-27T06:01:12;102208.09;;;12.45;100.00
13732;BME280;6937;56.096;12.664;2023-05-27T06:03:38;102215.47;;;12.57;100.00
13732;BME280;6937;56.096;12.664;2023-05-27T06:06:03;102205.78;;;12.54;100.00
13732;BME280;6937;56.096;12.664;2023-05-27T06:08:29;102221.06;;;12.52;100.00
13732;BME280;6937;56.096;12.664;2023-05-27T06:10:55;102221.50;;;12.60;100.00
13732;BME280;6937;56.096;12.664;2023-05-27T06:13:21;102223.84;;;12.67;100.00
13732;BME280;6937;56.096;12.664;2023-05-27T06:15:46;102230.94;;;12.68;100.00
13732;BME280;6937;56.096;12.664;2023-05-27T06:18:11;102233.28;;;12.74;100.00
13732;BME280;6937;56.096;12.664;2023-05-27T06:20:37;102241.06;;;12.78;100.00
13732;BME280;6937;56.096;12.664;2023-05-27T06:23:02;102245.19;;;12.84;100.00
13732;BME280;6937;56.096;12.664;2023-05-27T06:25:28;102246.13;;;12.83;100.00
13732;BME280;6937;56.096;12.664;2023-05-27T06:27:53;102250.56;;;12.84;100.00
13732;BME280;6937;56.096;12.664;2023-05-27T06:30:19;102253.25;;;12.84;100.00
13732;BME280;6937;56.096;12.664;2023-05-27T06:32:44;102256.97;;;12.81;100.00
13732;BME280;6937;56.096;12.664;2023-05-27T06:35:10;102260.94;;;12.90;100.00
13732;BME280;6937;56.096;12.664;2023-05-27T06:37:35;102268.38;;;13.00;100.00
13732;BME280;6937;56.096;12.664;2023-05-27T06:40:00;102263.78;;;13.02;100.00
13732;BME280;6937;56.096;12.664;2023-05-27T06:42:26;102266.38;;;13.04;100.00
13732;BME280;6937;56.096;12.664;2023-05-27T06:44:51;102262.28;;;13.13;100.00
13732;BME280;6937;56.096;12.664;2023-05-27T06:47:17;102282.81;;;13.14;100.00
13732;BME280;6937;56.096;12.664;2023-05-27T06:49:42;102286.13;;;13.19;100.00
13732;BME280;6937;56.096;12.664;2023-05-27T06:52:07;102295.63;;;13.24;100.00
13732;BME280;6937;56.096;12.664;2023-05-27T06:54:33;102307.16;;;13.26;100.00
13732;BME280;6937;56.096;12.664;2023-05-27T06:56:59;102321.81;;;13.35;100.00
13732;BME280;6937;56.096;12.664;2023-05-27T06:59:25;102346.97;;;13.34;100.00
13732;BME280;6937;56.096;12.664;2023-05-27T07:01:50;102348.88;;;13.32;100.00
13732;BME280;6937;56.096;12.664;2023-05-27T07:04:16;102362.97;;;13.35;100.00
13732;BME280;6937;56.096;12.664;2023-05-27T07:06:42;102369.47;;;13.31;100.00
13732;BME280;6937;56.096;12.664;2023-05-27T07:09:08;102391.50;;;13.38;100.00
13732;BME280;6937;56.096;12.664;2023-05-27T07:11:34;102400.94;;;13.45;100.00
13732;BME280;6937;56.096;12.664;2023-05-27T07:13:59;102407.56;;;13.53;100.00
13732;BME280;6937;56.096;12.664;2023-05-27T07:16:25;102392.25;;;13.55;100.00
13732;BME280;6937;56.096;12.664;2023-05-27T07:18:50;102411.91;;;13.56;100.00
13732;BME280;6937;56.096;12.664;2023-05-27T07:21:16;102420.22;;;13.67;100.00
13732;BME280;6937;56.096;12.664;2023-05-27T07:23:41;102419.66;;;13.76;100.00
13732;BME280;6937;56.096;12.664;2023-05-27T07:26:07;102432.47;;;13.87;100.00
13732;BME280;6937;56.096;12.664;2023-05-27T07:28:32;102434.56;;;13.82;100.00
13732;BME280;6937;56.096;12.664;2023-05-27T07:30:58;102445.50;;;13.79;100.00
13732;BME280;6937;56.096;12.664;2023-05-27T07:33:23;102445.22;;;13.83;100.00
13732;BME280;6937;56.096;12.664;2023-05-27T07:35:49;102433.41;;;13.86;100.00
13732;BME280;6937;56.096;12.664;2023-05-27T07:38:14;102433.91;;;13.92;100.00
13732;BME280;6937;56.096;12.664;2023-05-27T07:40:40;102434.72;;;13.94;100.00
13732;BME280;6937;56.096;12.664;2023-05-27T07:43:05;102442.31;;;14.02;100.00
13732;BME280;6937;56.096;12.664;2023-05-27T07:45:31;102437.41;;;14.09;100.00
13732;BME280;6937;56.096;12.664;2023-05-27T07:47:56;102439.16;;;14.10;100.00
13732;BME280;6937;56.096;12.664;2023-05-27T07:50:22;102428.78;;;14.18;100.00
13732;BME280;6937;56.096;12.664;2023-05-27T07:52:47;102428.66;;;14.35;100.00
13732;BME280;6937;56.096;12.664;2023-05-27T07:55:13;102422.53;;;14.47;100.00
13732;BME280;6937;56.096;12.664;2023-05-27T07:57:38;102425.09;;;14.48;100.00
13732;BME280;6937;56.096;12.664;2023-05-27T08:00:04;102423.19;;;14.50;100.00
13732;BME280;6937;56.096;12.664;2023-05-27T08:02:31;102432.81;;;14.55;100.00
13732;BME280;6937;56.096;12.664;2023-05-27T08:04:56;102439.03;;;14.55;100.00
13732;BME280;6937;56.096;12.664;2023-05-27T08:07:22;102433.38;;;14.60;100.00
13732;BME280;6937;56.096;12.664;2023-05-27T08:09:47;102433.16;;;14.63;100.00
13732;BME280;6937;56.096;12.664;2023-05-27T08:12:13;102437.03;;;14.73;100.00
13732;BME280;6937;56.096;12.664;2023-05-27T08:14:38;102441.94;;;14.80;100.00
13732;BME280;6937;56.096;12.664;2023-05-27T08:17:04;102445.19;;;14.85;100.00
13732;BME280;6937;56.096;12.664;2023-05-27T08:19:31;102450.69;;;14.84;100.00
13732;BME280;6937;56.096;12.664;2023-05-27T08:21:56;102455.38;;;14.94;100.00
13732;BME280;6937;56.096;12.664;2023-05-27T08:24:22;102454.03;;;15.02;100.00
13732;BME280;6937;56.096;12.664;2023-05-27T08:26:48;102464.50;;;15.06;100.00
13732;BME280;6937;56.096;12.664;2023-05-27T08:29:13;102461.91;;;15.05;100.00
13732;BME280;6937;56.096;12.664;2023-05-27T08:31:39;102461.59;;;15.09;100.00
13732;BME280;6937;56.096;12.664;2023-05-27T08:34:05;102450.84;;;15.09;100.00
13732;BME280;6937;56.096;12.664;2023-05-27T08:36:30;102467.78;;;14.97;100.00
13732;BME280;6937;56.096;12.664;2023-05-27T08:38:57;102460.94;;;15.06;100.00
13732;BME280;6937;56.096;12.664;2023-05-27T08:41:23;102474.13;;;15.10;100.00
13732;BME280;6937;56.096;12.664;2023-05-27T08:43:49;102464.97;;;15.13;100.00
13732;BME280;6937;56.096;12.664;2023-05-27T08:46:15;102471.97;;;15.29;100.00
13732;BME280;6937;56.096;12.664;2023-05-27T08:48:41;102473.88;;;15.27;100.00
13732;BME280;6937;56.096;12.664;2023-05-27T08:51:07;102464.94;;;15.27;100.00
13732;BME280;6937;56.096;12.664;2023-05-27T08:53:34;102471.28;;;15.40;100.00
13732;BME280;6937;56.096;12.664;2023-05-27T08:56:00;102480.50;;;15.50;100.00
13732;BME280;6937;56.096;12.664;2023-05-27T08:58:27;102484.72;;;15.54;100.00
13732;BME280;6937;56.096;12.664;2023-05-27T09:00:52;102487.97;;;15.45;100.00
13732;BME280;6937;56.096;12.664;2023-05-27T09:03:18;102494.44;;;15.57;100.00
13732;BME280;6937;56.096;12.664;2023-05-27T09:05:44;102492.31;;;15.62;100.00
13732;BME280;6937;56.096;12.664;2023-05-27T09:08:10;102490.88;;;15.56;100.00
13732;BME280;6937;56.096;12.664;2023-05-27T09:10:39;102477.75;;;15.64;100.00
13732;BME280;6937;56.096;12.664;2023-05-27T09:13:05;102485.63;;;15.67;100.00
13732;BME280;6937;56.096;12.664;2023-05-27T09:15:32;102479.34;;;15.81;100.00
13732;BME280;6937;56.096;12.664;2023-05-27T09:17:57;102484.63;;;15.82;100.00
13732;BME280;6937;56.096;12.664;2023-05-27T09:20:27;102481.97;;;15.68;100.00
13732;BME280;6937;56.096;12.664;2023-05-27T09:23:00;102486.13;;;15.74;100.00
13732;BME280;6937;56.096;12.664;2023-05-27T09:25:27;102475.00;;;15.78;100.00
13732;BME280;6937;56.096;12.664;2023-05-27T09:27:53;102488.66;;;15.89;100.00
13732;BME280;6937;56.096;12.664;2023-05-27T09:30:22;102478.38;;;15.82;100.00
13732;BME280;6937;56.096;12.664;2023-05-27T09:32:48;102491.34;;;15.89;100.00
13732;BME280;6937;56.096;12.664;2023-05-27T09:35:15;102487.00;;;15.87;100.00
13732;BME280;6937;56.096;12.664;2023-05-27T09:37:41;102492.69;;;15.70;100.00
13732;BME280;6937;56.096;12.664;2023-05-27T09:40:11;102485.09;;;15.62;100.00
13732;BME280;6937;56.096;12.664;2023-05-27T09:42:44;102474.41;;;15.87;100.00
13732;BME280;6937;56.096;12.664;2023-05-27T09:45:20;102476.66;;;15.81;100.00
13732;BME280;6937;56.096;12.664;2023-05-27T09:47:50;102471.00;;;15.71;100.00
13732;BME280;6937;56.096;12.664;2023-05-27T09:50:17;102472.50;;;15.75;100.00
13732;BME280;6937;56.096;12.664;2023-05-27T09:52:44;102473.38;;;15.76;100.00
13732;BME280;6937;56.096;12.664;2023-05-27T09:55:11;102469.78;;;15.89;100.00
13732;BME280;6937;56.096;12.664;2023-05-27T09:57:38;102466.22;;;15.89;100.00
13732;BME280;6937;56.096;12.664;2023-05-27T10:00:05;102461.28;;;15.69;100.00
13732;BME280;6937;56.096;12.664;2023-05-27T10:02:41;102468.56;;;15.81;100.00
13732;BME280;6937;56.096;12.664;2023-05-27T10:05:08;102474.41;;;15.87;100.00
13732;BME280;6937;56.096;12.664;2023-05-27T10:07:38;102466.66;;;15.95;100.00
13732;BME280;6937;56.096;12.664;2023-05-27T10:10:08;102463.34;;;16.17;100.00
13732;BME280;6937;56.096;12.664;2023-05-27T10:12:36;102464.56;;;16.26;100.00
13732;BME280;6937;56.096;12.664;2023-05-27T10:15:02;102461.44;;;16.32;100.00
13732;BME280;6937;56.096;12.664;2023-05-27T10:17:27;102465.09;;;16.43;100.00
13732;BME280;6937;56.096;12.664;2023-05-27T10:19:57;102457.66;;;16.47;100.00
13732;BME280;6937;56.096;12.664;2023-05-27T10:22:23;102464.56;;;16.38;100.00
13732;BME280;6937;56.096;12.664;2023-05-27T10:24:48;102476.09;;;16.28;100.00
13732;BME280;6937;56.096;12.664;2023-05-27T10:27:15;102468.44;;;16.22;100.00
13732;BME280;6937;56.096;12.664;2023-05-27T10:29:41;102465.41;;;16.39;100.00
13732;BME280;6937;56.096;12.664;2023-05-27T10:32:06;102469.66;;;16.56;100.00
13732;BME280;6937;56.096;12.664;2023-05-27T10:34:36;102460.69;;;16.80;100.00
13732;BME280;6937;56.096;12.664;2023-05-27T10:37:01;102468.03;;;16.91;100.00
13732;BME280;6937;56.096;12.664;2023-05-27T10:39:27;102467.59;;;16.84;100.00
13732;BME280;6937;56.096;12.664;2023-05-27T10:41:54;102466.88;;;16.82;100.00
13732;BME280;6937;56.096;12.664;2023-05-27T10:47:02;102461.22;;;16.98;100.00
13732;BME280;6937;56.096;12.664;2023-05-27T10:49:28;102463.25;;;16.95;100.00
13732;BME280;6937;56.096;12.664;2023-05-27T10:52:05;102447.38;;;17.03;100.00
13732;BME280;6937;56.096;12.664;2023-05-27T10:54:33;102446.38;;;17.16;100.00
13732;BME280;6937;56.096;12.664;2023-05-27T10:57:02;102448.59;;;17.35;100.00
13732;BME280;6937;56.096;12.664;2023-05-27T10:59:35;102451.84;;;17.51;100.00
13732;BME280;6937;56.096;12.664;2023-05-27T11:02:05;102450.34;;;17.47;100.00
13732;BME280;6937;56.096;12.664;2023-05-27T11:04:37;102446.69;;;17.48;100.00
13732;BME280;6937;56.096;12.664;2023-05-27T11:07:03;102445.47;;;17.52;100.00
13732;BME280;6937;56.096;12.664;2023-05-27T11:09:29;102456.06;;;17.55;100.00
13732;BME280;6937;56.096;12.664;2023-05-27T11:11:55;102456.63;;;17.48;100.00
13732;BME280;6937;56.096;12.664;2023-05-27T11:14:22;102449.72;;;17.44;100.00
13732;BME280;6937;56.096;12.664;2023-05-27T11:16:48;102453.81;;;17.49;100.00
13732;BME280;6937;56.096;12.664;2023-05-27T11:19:26;102456.63;;;17.60;100.00
13732;BME280;6937;56.096;12.664;2023-05-27T11:21:51;102456.88;;;17.45;100.00
13732;BME280;6937;56.096;12.664;2023-05-27T11:24:17;102453.38;;;17.31;100.00
13732;BME280;6937;56.096;12.664;2023-05-27T11:26:45;102453.28;;;17.44;100.00
13732;BME280;6937;56.096;12.664;2023-05-27T11:29:14;102448.31;;;17.51;100.00
13732;BME280;6937;56.096;12.664;2023-05-27T11:31:40;102453.50;;;17.54;100.00
13732;BME280;6937;56.096;12.664;2023-05-27T11:34:12;102441.13;;;17.62;100.00
13732;BME280;6937;56.096;12.664;2023-05-27T11:36:39;102447.56;;;17.49;100.00
13732;BME280;6937;56.096;12.664;2023-05-27T11:39:04;102435.22;;;17.57;100.00
13732;BME280;6937;56.096;12.664;2023-05-27T11:41:30;102431.56;;;17.58;100.00
13732;BME280;6937;56.096;12.664;2023-05-27T11:44:00;102435.00;;;17.24;100.00
13732;BME280;6937;56.096;12.664;2023-05-27T11:46:40;102422.59;;;17.45;100.00
13732;BME280;6937;56.096;12.664;2023-05-27T11:49:07;102411.81;;;17.56;100.00
13732;BME280;6937;56.096;12.664;2023-05-27T11:51:46;102409.22;;;17.55;100.00
13732;BME280;6937;56.096;12.664;2023-05-27T11:54:30;102393.53;;;17.36;100.00
13732;BME280;6937;56.096;12.664;2023-05-27T11:56:57;102402.41;;;17.38;100.00
13732;BME280;6937;56.096;12.664;2023-05-27T11:59:24;102397.44;;;17.56;100.00
13732;BME280;6937;56.096;12.664;2023-05-27T12:01:50;102393.25;;;17.75;100.00
13732;BME280;6937;56.096;12.664;2023-05-27T12:04:16;102388.50;;;17.90;100.00
13732;BME280;6937;56.096;12.664;2023-05-27T12:06:43;102395.91;;;17.88;100.00
13732;BME280;6937;56.096;12.664;2023-05-27T12:09:09;102388.88;;;17.97;100.00
13732;BME280;6937;56.096;12.664;2023-05-27T12:11:36;102395.94;;;17.99;100.00
13732;BME280;6937;56.096;12.664;2023-05-27T12:14:01;102393.56;;;17.95;100.00
13732;BME280;6937;56.096;12.664;2023-05-27T12:16:27;102385.44;;;17.95;100.00
13732;BME280;6937;56.096;12.664;2023-05-27T12:18:53;102384.59;;;17.94;100.00
13732;BME280;6937;56.096;12.664;2023-05-27T12:21:18;102382.88;;;18.04;100.00
13732;BME280;6937;56.096;12.664;2023-05-27T12:23:47;102380.28;;;17.92;100.00
13732;BME280;6937;56.096;12.664;2023-05-27T12:26:13;102369.22;;;17.95;100.00
13732;BME280;6937;56.096;12.664;2023-05-27T12:28:40;102370.78;;;17.86;100.00
13732;BME280;6937;56.096;12.664;2023-05-27T12:31:06;102368.97;;;17.98;100.00
13732;BME280;6937;56.096;12.664;2023-05-27T12:33:31;102369.94;;;17.97;100.00
13732;BME280;6937;56.096;12.664;2023-05-27T12:35:57;102356.94;;;18.13;100.00
13732;BME280;6937;56.096;12.664;2023-05-27T12:38:23;102355.47;;;18.20;100.00
13732;BME280;6937;56.096;12.664;2023-05-27T12:40:48;102366.19;;;18.10;100.00
13732;BME280;6937;56.096;12.664;2023-05-27T12:43:17;102353.53;;;18.11;100.00